createdAt,value
2023-06-07T00:00:13.214Z,17.90
2023-06-07T00:02:44.298Z,17.90
2023-06-07T00:05:13.825Z,17.90
2023-06-07T00:07:40.431Z,17.80
2023-06-07T00:10:07.337Z,17.80
2023-06-07T00:12:33.862Z,17.80
2023-06-07T00:15:03.643Z,17.80
2023-06-07T00:17:30.366Z,17.80
2023-06-07T00:19:57.166Z,17.70
2023-06-07T00:22:24.004Z,17.70
2023-06-07T00:24:50.604Z,17.60
2023-06-07T00:27:17.168Z,17.60
2023-06-07T00:29:43.755Z,17.60
2023-06-07T00:32:10.378Z,17.60
2023-06-07T00:34:36.936Z,17.60
2023-06-07T00:37:03.476Z,17.60
2023-06-07T00:39:30.112Z,17.60
2023-06-07T00:41:56.712Z,17.60
2023-06-07T00:44:23.905Z,17.60
2023-06-07T00:46:50.451Z,17.60
2023-06-07T00:49:17.472Z,17.50
2023-06-07T00:51:44.158Z,17.50
2023-06-07T00:54:10.773Z,17.40
2023-06-07T00:56:37.453Z,17.40
2023-06-07T00:59:03.987Z,17.40
2023-06-07T01:01:30.769Z,17.40
2023-06-07T01:03:57.346Z,17.40
2023-06-07T01:06:23.895Z,17.30
2023-06-07T01:08:50.939Z,17.30
2023-06-07T01:11:17.479Z,17.30
2023-06-07T01:13:44.024Z,17.20
2023-06-07T01:16:10.759Z,17.20
2023-06-07T01:18:37.288Z,17.20
2023-06-07T01:21:03.931Z,17.10
2023-06-07T01:23:30.509Z,17.10
2023-06-07T01:25:58.795Z,17.10
2023-06-07T01:28:25.518Z,17.10
2023-06-07T01:30:52.064Z,17.00
2023-06-07T01:33:18.623Z,17.00
2023-06-07T01:35:45.517Z,16.90
2023-06-07T01:38:12.057Z,16.90
2023-06-07T01:40:38.994Z,16.80
2023-06-07T01:43:05.779Z,16.80
2023-06-07T01:45:32.308Z,16.80
2023-06-07T01:47:58.897Z,16.80
2023-06-07T01:50:25.846Z,16.70
2023-06-07T01:52:52.379Z,16.70
2023-06-07T01:55:18.986Z,16.70
2023-06-07T01:57:45.612Z,16.60
2023-06-07T02:00:12.213Z,16.60
2023-06-07T02:02:38.901Z,16.60
2023-06-07T02:05:05.553Z,16.50
2023-06-07T02:07:32.069Z,16.50
2023-06-07T02:09:58.654Z,16.50
2023-06-07T02:12:25.473Z,16.40
2023-06-07T02:14:53.458Z,16.30
2023-06-07T02:17:20.803Z,16.30
2023-06-07T02:19:47.649Z,16.30
2023-06-07T02:22:15.030Z,16.30
2023-06-07T02:24:42.145Z,16.30
2023-06-07T02:27:09.385Z,16.30
2023-06-07T02:29:35.884Z,16.30
2023-06-07T02:32:02.427Z,16.30
2023-06-07T02:34:30.651Z,16.30
2023-06-07T02:36:58.078Z,16.20
2023-06-07T02:39:24.648Z,16.20
2023-06-07T02:41:51.261Z,16.20
2023-06-07T02:44:17.770Z,16.10
2023-06-07T02:46:44.357Z,16.10
2023-06-07T02:49:10.893Z,16.10
2023-06-07T02:51:38.452Z,16.10
2023-06-07T02:54:05.021Z,16.00
2023-06-07T02:56:33.734Z,16.10
2023-06-07T02:59:00.323Z,16.00
2023-06-07T03:01:28.324Z,16.00
2023-06-07T03:03:56.275Z,16.00
2023-06-07T03:06:22.812Z,16.00
2023-06-07T03:08:49.455Z,16.00
2023-06-07T03:11:15.975Z,15.90
2023-06-07T03:13:42.867Z,15.90
2023-06-07T03:16:09.466Z,15.90
2023-06-07T03:18:36.246Z,15.90
2023-06-07T03:21:03.425Z,15.90
2023-06-07T03:23:31.227Z,15.80
2023-06-07T03:25:59.894Z,15.80
2023-06-07T03:28:26.514Z,15.70
2023-06-07T03:30:53.071Z,15.70
2023-06-07T03:33:19.669Z,15.70
2023-06-07T03:35:46.703Z,15.70
2023-06-07T03:38:13.288Z,15.70
2023-06-07T03:40:39.803Z,15.70
2023-06-07T03:43:06.393Z,15.60
2023-06-07T03:45:32.962Z,15.60
2023-06-07T03:47:59.726Z,15.60
2023-06-07T03:50:26.318Z,15.60
2023-06-07T03:52:52.849Z,15.60
2023-06-07T03:55:21.002Z,15.60
2023-06-07T03:57:47.586Z,15.50
2023-06-07T04:00:15.968Z,15.50
2023-06-07T04:02:42.721Z,15.50
2023-06-07T04:05:10.533Z,15.50
2023-06-07T04:07:39.169Z,15.50
2023-06-07T04:10:06.304Z,15.50
2023-06-07T04:12:33.101Z,15.50
2023-06-07T04:14:59.615Z,15.50
2023-06-07T04:17:26.259Z,15.40
2023-06-07T04:19:57.398Z,15.30
2023-06-07T04:22:24.087Z,15.20
2023-06-07T04:24:51.137Z,15.20
2023-06-07T04:27:19.333Z,15.20
2023-06-07T04:29:49.956Z,15.20
2023-06-07T04:32:19.964Z,15.20
2023-06-07T04:34:46.873Z,15.20
2023-06-07T04:37:13.677Z,15.20
2023-06-07T04:39:42.121Z,15.20
2023-06-07T04:42:10.133Z,15.30
2023-06-07T04:44:38.056Z,15.30
2023-06-07T04:47:09.237Z,15.20
2023-06-07T04:49:39.473Z,15.20
2023-06-07T04:52:06.770Z,15.20
2023-06-07T04:54:37.385Z,15.20
2023-06-07T04:57:04.448Z,15.20
2023-06-07T04:59:35.695Z,15.30
2023-06-07T05:02:03.033Z,15.30
2023-06-07T05:04:31.954Z,15.30
2023-06-07T05:06:59.438Z,15.40
2023-06-07T05:09:28.699Z,15.40
2023-06-07T05:11:57.084Z,15.40
2023-06-07T05:14:23.610Z,15.30
2023-06-07T05:16:50.157Z,15.20
2023-06-07T05:19:18.050Z,15.20
2023-06-07T05:21:44.640Z,15.10
2023-06-07T05:24:11.408Z,15.00
2023-06-07T05:26:38.512Z,15.00
2023-06-07T05:29:05.127Z,15.00
2023-06-07T05:31:31.770Z,15.00
2023-06-07T05:33:58.445Z,15.00
2023-06-07T05:36:24.960Z,15.00
2023-06-07T05:38:51.635Z,15.00
2023-06-07T05:41:18.294Z,15.00
2023-06-07T05:43:45.346Z,15.00
2023-06-07T05:46:12.098Z,14.90
2023-06-07T05:48:38.618Z,14.90
2023-06-07T05:51:08.203Z,14.90
2023-06-07T05:53:35.082Z,14.90
2023-06-07T05:56:01.641Z,14.90
2023-06-07T05:58:28.308Z,14.90
2023-06-07T06:00:55.325Z,14.90
2023-06-07T06:03:22.591Z,14.90
2023-06-07T06:05:49.252Z,14.90
2023-06-07T06:08:16.852Z,14.90
2023-06-07T06:10:45.676Z,14.90
2023-06-07T06:13:12.395Z,14.90
2023-06-07T06:15:38.960Z,14.90
2023-06-07T06:18:05.752Z,14.80
2023-06-07T06:20:34.816Z,14.80
2023-06-07T06:23:01.789Z,14.80
2023-06-07T06:25:29.700Z,14.70
2023-06-07T06:27:56.334Z,14.70
2023-06-07T06:30:24.588Z,14.70
2023-06-07T06:32:53.439Z,14.60
2023-06-07T06:44:46.831Z,14.50
2023-06-07T06:47:25.859Z,14.50
2023-06-07T06:50:40.272Z,14.50
2023-06-07T06:53:07.442Z,14.40
2023-06-07T06:55:42.398Z,14.40
2023-06-07T06:58:36.870Z,14.40
2023-06-07T07:01:06.864Z,14.40
2023-06-07T07:03:41.684Z,14.50
2023-06-07T07:06:13.576Z,14.60
2023-06-07T07:11:34.318Z,14.70
2023-06-07T08:18:53.182Z,15.20
2023-06-07T08:21:20.858Z,15.20
2023-06-07T08:23:58.828Z,15.30
2023-06-07T08:26:26.231Z,15.30
2023-06-07T08:29:01.160Z,15.30
2023-06-07T08:31:37.499Z,15.30
2023-06-07T08:34:13.411Z,15.30
2023-06-07T08:36:51.728Z,15.40
2023-06-07T08:39:22.066Z,15.40
2023-06-07T08:42:07.118Z,15.40
2023-06-07T08:44:36.942Z,15.40
2023-06-07T08:47:10.639Z,15.40
2023-06-07T08:49:41.113Z,15.20
2023-06-07T08:52:16.280Z,15.20
2023-06-07T08:54:47.156Z,15.20
2023-06-07T08:57:20.096Z,15.20
2023-06-07T09:00:00.360Z,15.10
2023-06-07T09:02:32.628Z,15.10
2023-06-07T09:05:12.062Z,15.10
2023-06-07T09:07:40.980Z,15.20
2023-06-07T09:10:11.593Z,15.40
2023-06-07T09:12:42.536Z,15.50
2023-06-07T09:15:13.692Z,15.60
2023-06-07T09:17:47.334Z,15.70
2023-06-07T09:20:15.278Z,15.70
2023-06-07T09:22:51.537Z,15.70
2023-06-07T09:25:42.294Z,15.70
2023-06-07T09:28:14.240Z,15.70
2023-06-07T09:30:45.220Z,15.80
2023-06-07T09:33:31.483Z,15.90
2023-06-07T09:36:03.361Z,15.90
2023-06-07T09:38:35.474Z,15.90
2023-06-07T09:41:15.099Z,16.00
2023-06-07T09:43:42.743Z,16.00
2023-06-07T09:46:16.139Z,16.00
2023-06-07T09:48:44.268Z,16.10
2023-06-07T09:51:17.672Z,16.10
2023-06-07T09:53:45.208Z,16.20
2023-06-07T09:56:12.827Z,16.40
2023-06-07T09:58:40.362Z,16.40
2023-06-07T10:01:07.744Z,16.60
2023-06-07T10:03:35.957Z,16.80
2023-06-07T10:06:03.433Z,16.90
2023-06-07T10:08:30.912Z,16.80
2023-06-07T10:11:02.045Z,16.80
2023-06-07T10:13:29.463Z,16.80
2023-06-07T10:15:56.784Z,16.80
2023-06-07T10:18:28.354Z,16.90
2023-06-07T10:20:59.366Z,16.90
2023-06-07T10:23:28.710Z,16.90
2023-06-07T10:25:56.887Z,16.90
2023-06-07T10:28:24.817Z,16.90
2023-06-07T10:30:52.327Z,17.00
2023-06-07T10:33:20.374Z,17.10
2023-06-07T10:35:48.094Z,17.30
2023-06-07T10:38:15.769Z,17.40
2023-06-07T10:40:44.607Z,17.50
2023-06-07T10:43:11.639Z,17.50
2023-06-07T10:45:38.733Z,17.50
2023-06-07T10:48:06.238Z,17.60
2023-06-07T10:50:33.778Z,17.60
2023-06-07T10:53:01.111Z,17.50
2023-06-07T10:55:28.886Z,17.50
2023-06-07T10:58:00.195Z,17.50
2023-06-07T11:00:28.292Z,17.50
2023-06-07T11:02:55.901Z,17.50
2023-06-07T11:05:33.839Z,17.50
2023-06-07T11:08:01.968Z,17.50
2023-06-07T11:10:29.453Z,17.50
2023-06-07T11:12:59.097Z,17.40
2023-06-07T11:15:31.696Z,17.40
2023-06-07T11:17:59.443Z,17.50
2023-06-07T11:20:46.917Z,17.60
2023-06-07T11:23:16.224Z,17.60
2023-06-07T11:25:43.307Z,17.70
2023-06-07T11:28:13.785Z,17.70
2023-06-07T11:30:42.053Z,17.80
2023-06-07T11:33:12.522Z,17.90
2023-06-07T11:35:39.824Z,18.00
2023-06-07T11:38:06.913Z,18.20
2023-06-07T11:40:34.628Z,18.40
2023-06-07T11:43:02.209Z,18.70
2023-06-07T11:45:30.083Z,19.00
2023-06-07T11:48:02.433Z,19.30
2023-06-07T11:50:29.950Z,19.50
2023-06-07T11:53:04.549Z,19.60
2023-06-07T12:01:26.119Z,19.50
